createdAt,value
2023-04-19T00:02:00.416Z,102918.84
2023-04-19T00:04:26.991Z,102927.22
2023-04-19T00:06:53.794Z,102918.97
2023-04-19T00:09:20.274Z,102917.13
2023-04-19T00:11:46.622Z,102918.97
2023-04-19T00:14:13.088Z,102911.38
2023-04-19T00:16:39.823Z,102919.91
2023-04-19T00:19:06.939Z,102919.50
2023-04-19T00:21:33.331Z,102913.13
2023-04-19T00:23:59.712Z,102919.38
2023-04-19T00:26:26.728Z,102909.09
2023-04-19T00:28:53.143Z,102910.66
2023-04-19T00:31:19.576Z,102911.00
2023-04-19T00:33:46.049Z,102911.84
2023-04-19T00:36:12.367Z,102910.53
2023-04-19T00:38:38.689Z,102910.53
2023-04-19T00:41:05.109Z,102910.41
2023-04-19T00:43:31.512Z,102905.69
2023-04-19T00:45:58.140Z,102902.16
2023-04-19T00:48:25.643Z,102904.38
2023-04-19T00:50:52.084Z,102908.44
2023-04-19T00:53:18.688Z,102908.47
2023-04-19T00:55:45.419Z,102906.13
2023-04-19T00:58:11.969Z,102896.03
2023-04-19T01:00:38.623Z,102896.72
2023-04-19T01:03:05.210Z,102899.63
2023-04-19T01:05:31.865Z,102891.22
2023-04-19T01:07:58.331Z,102886.66
2023-04-19T01:10:25.043Z,102883.78
2023-04-19T01:12:51.660Z,102885.94
2023-04-19T01:15:18.234Z,102884.41
2023-04-19T01:17:44.651Z,102883.56
2023-04-19T01:20:11.619Z,102883.00
2023-04-19T01:22:38.286Z,102879.97
2023-04-19T01:25:05.300Z,102878.41
2023-04-19T01:27:31.829Z,102883.13
2023-04-19T01:29:58.245Z,102888.81
2023-04-19T01:32:26.359Z,102879.38
2023-04-19T01:34:53.285Z,102883.22
2023-04-19T01:37:19.642Z,102878.28
2023-04-19T01:39:46.397Z,102876.56
2023-04-19T01:42:12.779Z,102872.97
2023-04-19T01:44:39.134Z,102875.34
2023-04-19T01:47:05.811Z,102873.63
2023-04-19T01:49:32.532Z,102873.72
2023-04-19T01:51:58.898Z,102883.16
2023-04-19T01:54:25.286Z,102876.53
2023-04-19T01:56:51.741Z,102882.78
2023-04-19T01:59:18.102Z,102886.44
2023-04-19T02:01:44.530Z,102879.66
2023-04-19T02:04:11.201Z,102890.09
2023-04-19T02:06:37.803Z,102879.97
2023-04-19T02:09:04.392Z,102880.44
2023-04-19T02:11:30.857Z,102872.13
2023-04-19T02:13:57.152Z,102874.47
2023-04-19T02:16:23.617Z,102873.94
2023-04-19T02:18:50.011Z,102880.00
2023-04-19T02:21:16.544Z,102882.34
2023-04-19T02:23:42.880Z,102882.16
2023-04-19T02:26:09.221Z,102873.88
2023-04-19T02:28:35.654Z,102874.69
2023-04-19T02:31:05.839Z,102873.50
2023-04-19T02:33:32.535Z,102883.13
2023-04-19T02:35:59.131Z,102881.78
2023-04-19T02:38:25.670Z,102878.91
2023-04-19T02:40:52.074Z,102885.97
2023-04-19T02:43:18.551Z,102891.22
2023-04-19T02:45:45.012Z,102891.88
2023-04-19T02:48:11.423Z,102890.47
2023-04-19T02:50:38.753Z,102885.06
2023-04-19T02:53:05.403Z,102883.41
2023-04-19T02:55:31.770Z,102882.34
2023-04-19T02:57:58.354Z,102886.75
2023-04-19T03:00:24.733Z,102886.59
2023-04-19T03:02:51.258Z,102883.50
2023-04-19T03:05:18.068Z,102871.19
2023-04-19T03:07:44.774Z,102874.94
2023-04-19T03:10:11.302Z,102880.13
2023-04-19T03:12:37.721Z,102878.28
2023-04-19T03:15:04.682Z,102878.75
2023-04-19T03:17:31.227Z,102875.84
2023-04-19T03:19:57.800Z,102877.53
2023-04-19T03:22:24.208Z,102876.53
2023-04-19T03:24:50.684Z,102870.72
2023-04-19T03:27:17.060Z,102879.50
2023-04-19T03:29:43.565Z,102873.06
2023-04-19T03:32:09.926Z,102873.06
2023-04-19T03:34:36.357Z,102874.75
2023-04-19T03:37:02.774Z,102867.66
2023-04-19T03:39:29.161Z,102868.50
2023-04-19T03:41:55.512Z,102873.06
2023-04-19T03:44:21.964Z,102866.00
2023-04-19T03:46:48.880Z,102872.25
2023-04-19T03:49:15.331Z,102872.63
2023-04-19T03:51:41.742Z,102867.09
2023-04-19T03:54:08.139Z,102866.97
2023-04-19T03:56:34.522Z,102870.97
2023-04-19T03:59:00.978Z,102864.31
2023-04-19T04:01:28.005Z,102866.44
2023-04-19T04:03:54.729Z,102870.22
2023-04-19T04:06:21.241Z,102867.59
2023-04-19T04:08:47.705Z,102868.59
2023-04-19T04:11:14.292Z,102871.16
2023-04-19T04:13:40.750Z,102870.31
2023-04-19T04:16:07.466Z,102874.00
2023-04-19T04:18:33.819Z,102867.31
2023-04-19T04:21:00.856Z,102878.81
2023-04-19T04:23:28.274Z,102874.78
2023-04-19T04:26:01.146Z,102871.78
2023-04-19T04:28:28.368Z,102875.00
2023-04-19T04:30:57.777Z,102873.03
2023-04-19T04:33:25.814Z,102869.66
2023-04-19T04:35:53.351Z,102875.41
2023-04-19T04:38:24.672Z,102874.44
2023-04-19T04:40:56.067Z,102879.38
2023-04-19T04:43:25.739Z,102876.69
2023-04-19T04:45:52.255Z,102875.38
2023-04-19T04:48:18.734Z,102879.28
2023-04-19T04:50:45.269Z,102874.38
2023-04-19T04:53:14.940Z,102870.69
2023-04-19T04:55:41.510Z,102879.97
2023-04-19T04:58:07.861Z,102884.56
2023-04-19T05:00:34.529Z,102884.91
2023-04-19T05:03:03.120Z,102881.56
2023-04-19T05:05:29.889Z,102888.13
2023-04-19T05:07:56.332Z,102887.28
2023-04-19T05:10:22.698Z,102895.38
2023-04-19T05:12:49.064Z,102885.59
2023-04-19T05:15:15.473Z,102893.69
2023-04-19T05:17:43.205Z,102887.63
2023-04-19T05:20:09.957Z,102889.31
2023-04-19T05:22:36.573Z,102881.56
2023-04-19T05:25:03.144Z,102893.19
2023-04-19T05:27:29.505Z,102889.28
2023-04-19T05:29:55.822Z,102892.84
2023-04-19T05:32:22.465Z,102897.19
2023-04-19T05:34:49.079Z,102896.34
2023-04-19T05:37:15.527Z,102889.59
2023-04-19T05:39:43.628Z,102897.84
2023-04-19T05:42:11.063Z,102897.91
2023-04-19T05:44:37.425Z,102894.44
2023-04-19T05:47:03.974Z,102899.72
2023-04-19T05:49:30.377Z,102894.78
2023-04-19T05:51:56.986Z,102893.31
2023-04-19T05:54:23.512Z,102890.63
2023-04-19T05:56:49.966Z,102893.69
2023-04-19T05:59:16.468Z,102893.69
2023-04-19T06:01:43.064Z,102892.97
2023-04-19T06:04:09.724Z,102893.91
2023-04-19T06:06:37.909Z,102895.06
2023-04-19T06:09:04.471Z,102890.78
2023-04-19T06:11:38.873Z,102893.78
2023-04-19T06:14:06.128Z,102900.03
2023-04-19T06:16:32.648Z,102896.47
2023-04-19T06:18:59.108Z,102895.59
2023-04-19T06:21:25.540Z,102895.66
2023-04-19T06:23:51.934Z,102899.16
2023-04-19T06:26:18.299Z,102890.31
2023-04-19T06:28:44.655Z,102894.72
2023-04-19T06:31:12.168Z,102890.13
2023-04-19T06:33:38.757Z,102888.47
2023-04-19T06:36:05.927Z,102884.72
2023-04-19T06:38:32.433Z,102895.56
2023-04-19T06:40:58.770Z,102902.97
2023-04-19T06:43:25.652Z,102901.34
2023-04-19T06:46:01.338Z,102896.88
2023-04-19T06:48:28.030Z,102895.25
2023-04-19T06:50:55.021Z,102898.44
2023-04-19T06:53:21.489Z,102893.91
2023-04-19T06:55:47.935Z,102903.50
2023-04-19T06:58:14.339Z,102897.44
2023-04-19T07:00:40.842Z,102905.94
2023-04-19T07:03:07.345Z,102902.59
2023-04-19T07:05:33.869Z,102916.28
2023-04-19T07:08:00.246Z,102905.88
2023-04-19T07:10:26.651Z,102906.72
2023-04-19T07:12:53.022Z,102905.25
2023-04-19T07:15:19.470Z,102905.66
2023-04-19T07:17:46.841Z,102906.31
2023-04-19T07:20:13.234Z,102909.84
2023-04-19T07:22:39.642Z,102897.63
2023-04-19T07:25:06.374Z,102904.38
2023-04-19T07:27:32.759Z,102899.81
2023-04-19T07:29:59.149Z,102898.81
2023-04-19T07:32:25.731Z,102903.56
2023-04-19T07:34:52.890Z,102901.50
2023-04-19T07:37:19.780Z,102897.94
2023-04-19T07:39:46.177Z,102906.69
2023-04-19T07:42:12.477Z,102905.13
2023-04-19T07:44:38.792Z,102900.00
2023-04-19T07:47:06.128Z,102901.75
2023-04-19T07:49:34.161Z,102905.94
2023-04-19T07:52:04.164Z,102906.06
2023-04-19T07:54:31.276Z,102910.63
2023-04-19T07:56:58.995Z,102919.41
2023-04-19T07:59:25.694Z,102910.19
2023-04-19T08:01:52.216Z,102903.31
2023-04-19T08:04:20.570Z,102909.38
2023-04-19T08:06:47.715Z,102905.28
2023-04-19T08:09:14.532Z,102911.09
2023-04-19T08:11:41.070Z,102917.13
2023-04-19T08:14:15.164Z,102906.75
2023-04-19T08:19:17.747Z,102908.22
2023-04-19T08:21:44.258Z,102898.91
2023-04-19T08:24:10.772Z,102905.34
2023-04-19T08:26:39.012Z,102901.19
2023-04-19T08:29:05.427Z,102899.25
2023-04-19T08:31:32.110Z,102900.25
2023-04-19T08:34:00.236Z,102896.75
2023-04-19T08:36:39.219Z,102904.38
2023-04-19T08:39:15.063Z,102891.69
2023-04-19T08:41:56.070Z,102897.69
2023-04-19T08:44:36.476Z,102889.16
2023-04-19T08:47:04.409Z,102890.50
2023-04-19T08:49:34.552Z,102888.88
2023-04-19T08:52:02.369Z,102889.44
2023-04-19T08:54:32.208Z,102889.88
2023-04-19T08:56:59.913Z,102890.34
2023-04-19T08:59:26.451Z,102893.75
2023-04-19T09:01:52.834Z,102892.31
2023-04-19T09:04:35.519Z,102899.34
2023-04-19T09:07:03.150Z,102897.66
2023-04-19T09:12:00.084Z,102887.66
2023-04-19T09:14:27.744Z,102878.03
2023-04-19T09:16:54.616Z,102883.75
2023-04-19T09:19:24.849Z,102871.25
2023-04-19T09:21:53.943Z,102876.16
2023-04-19T09:27:07.828Z,102869.84
2023-04-19T09:29:34.305Z,102870.75
2023-04-19T09:32:00.806Z,102872.78
2023-04-19T09:34:29.639Z,102867.09
2023-04-19T09:37:08.523Z,102868.19
2023-04-19T09:39:39.738Z,102870.31
2023-04-19T09:42:07.069Z,102864.13
2023-04-19T09:45:09.442Z,102858.31
2023-04-19T09:47:26.418Z,102857.44
2023-04-19T09:50:19.226Z,102850.19
2023-04-19T09:52:50.017Z,102859.22
2023-04-19T09:55:26.906Z,102867.44
2023-04-19T09:57:53.892Z,102861.69
2023-04-19T10:00:21.712Z,102848.44
2023-04-19T10:02:55.769Z,102858.06
2023-04-19T10:05:24.059Z,102851.25
2023-04-19T10:07:53.706Z,102849.59
2023-04-19T10:10:27.633Z,102851.28
2023-04-19T10:13:21.418Z,102838.94
2023-04-19T10:15:54.173Z,102837.97
2023-04-19T10:18:25.019Z,102835.81
2023-04-19T10:21:00.861Z,102841.63
2023-04-19T10:23:28.940Z,102838.47
2023-04-19T10:26:00.425Z,102838.66
2023-04-19T10:28:30.876Z,102830.13
2023-04-19T10:31:01.648Z,102825.66
2023-04-19T10:33:31.878Z,102833.28
2023-04-19T10:35:59.400Z,102846.91
2023-04-19T10:38:35.675Z,102834.75
2023-04-19T10:41:03.749Z,102827.78
2023-04-19T10:43:34.508Z,102829.88
2023-04-19T10:46:06.863Z,102823.56
2023-04-19T10:48:37.846Z,102826.47
2023-04-19T10:51:35.617Z,102828.44
2023-04-19T10:54:09.861Z,102825.47
2023-04-19T10:56:36.141Z,102815.78
2023-04-19T10:59:02.664Z,102806.56
2023-04-19T11:01:43.033Z,102813.72
2023-04-19T11:04:14.287Z,102813.66
2023-04-19T11:06:52.711Z,102809.63
2023-04-19T11:09:35.707Z,102794.69
2023-04-19T11:12:09.806Z,102805.59
2023-04-19T11:14:41.297Z,102793.13
2023-04-19T11:17:27.832Z,102793.94
2023-04-19T11:19:56.360Z,102776.81
2023-04-19T11:22:40.406Z,102775.69
2023-04-19T11:25:21.217Z,102771.03
2023-04-19T11:27:52.840Z,102775.88
2023-04-19T11:30:22.296Z,102767.63
2023-04-19T11:32:53.428Z,102766.63
2023-04-19T11:35:22.069Z,102770.28
2023-04-19T11:37:48.629Z,102749.06
2023-04-19T11:40:19.259Z,102754.66
2023-04-19T11:42:46.165Z,102740.97
2023-04-19T11:45:33.198Z,102766.78
2023-04-19T11:48:04.180Z,102740.97
2023-04-19T11:50:43.286Z,102735.84
2023-04-19T11:53:28.752Z,102729.63
2023-04-19T11:55:57.579Z,102732.88
2023-04-19T11:58:25.143Z,102733.59
2023-04-19T12:00:51.631Z,102726.38
2023-04-19T12:03:25.771Z,102720.38
2023-04-19T12:05:57.624Z,102723.16
2023-04-19T12:08:34.715Z,102731.13
2023-04-19T12:11:03.314Z,102722.00
2023-04-19T12:13:31.263Z,102723.94
2023-04-19T12:15:57.957Z,102728.59
2023-04-19T12:18:24.994Z,102720.59
2023-04-19T12:20:52.261Z,102722.97
2023-04-19T12:23:20.582Z,102713.81
2023-04-19T12:25:48.274Z,102714.38
2023-04-19T12:28:15.940Z,102707.31
2023-04-19T12:30:42.438Z,102717.19
2023-04-19T12:33:09.248Z,102706.09
2023-04-19T12:35:36.058Z,102713.22
2023-04-19T12:38:03.296Z,102705.53
2023-04-19T12:40:30.718Z,102698.72
2023-04-19T12:42:57.291Z,102697.88
2023-04-19T12:45:23.937Z,102683.00
2023-04-19T12:47:50.618Z,102685.72
2023-04-19T12:50:17.209Z,102695.13
2023-04-19T12:52:45.418Z,102689.06
2023-04-19T12:55:12.053Z,102673.56
2023-04-19T12:57:38.530Z,102682.88
2023-04-19T13:00:07.262Z,102679.91
2023-04-19T13:02:34.528Z,102677.53
2023-04-19T13:05:01.163Z,102659.88
2023-04-19T13:07:28.477Z,102662.06
2023-04-19T13:09:56.731Z,102654.31
2023-04-19T13:12:23.870Z,102647.13
2023-04-19T13:14:52.085Z,102633.28
2023-04-19T13:17:19.564Z,102641.03
2023-04-19T13:19:46.115Z,102636.59
2023-04-19T13:22:12.467Z,102638.53
2023-04-19T13:24:38.894Z,102628.34
2023-04-19T13:27:08.288Z,102635.84
2023-04-19T13:29:35.493Z,102626.19
2023-04-19T13:32:01.870Z,102619.28
2023-04-19T13:34:28.422Z,102613.44
2023-04-19T13:36:55.320Z,102607.97
2023-04-19T13:39:22.906Z,102591.63
2023-04-19T13:41:49.233Z,102597.25
2023-04-19T13:44:15.801Z,102600.81
2023-04-19T13:46:42.517Z,102600.28
2023-04-19T13:49:09.103Z,102598.56
2023-04-19T13:51:48.914Z,102596.59
2023-04-19T13:54:18.313Z,102594.41
2023-04-19T13:56:45.214Z,102572.13
2023-04-19T13:59:11.547Z,102569.38
2023-04-19T14:01:38.668Z,102576.00
2023-04-19T14:04:05.434Z,102568.00
2023-04-19T14:06:32.677Z,102564.25
2023-04-19T14:08:58.997Z,102557.69
2023-04-19T14:11:25.843Z,102561.56
2023-04-19T14:13:53.287Z,102561.84
2023-04-19T14:16:20.669Z,102557.47
2023-04-19T14:18:47.153Z,102539.69
2023-04-19T14:21:14.547Z,102538.09
2023-04-19T14:23:40.904Z,102532.13
2023-04-19T14:26:07.636Z,102532.19
2023-04-19T14:28:34.105Z,102526.66
2023-04-19T14:31:00.480Z,102518.66
2023-04-19T14:33:26.932Z,102518.66
2023-04-19T14:35:53.368Z,102521.63
2023-04-19T14:38:19.693Z,102517.97
2023-04-19T14:40:46.534Z,102516.59
2023-04-19T14:43:15.231Z,102501.59
2023-04-19T14:45:41.905Z,102499.28
2023-04-19T14:48:08.232Z,102513.00
2023-04-19T14:50:34.592Z,102505.50
2023-04-19T14:53:00.900Z,102505.06
2023-04-19T14:55:27.814Z,102501.00
2023-04-19T14:57:54.595Z,102497.31
2023-04-19T15:00:21.246Z,102492.13
2023-04-19T15:02:47.641Z,102491.88
2023-04-19T15:05:14.461Z,102491.66
2023-04-19T15:07:40.901Z,102484.88
2023-04-19T15:10:07.820Z,102490.97
2023-04-19T15:12:34.193Z,102486.44
2023-04-19T15:15:00.740Z,102486.81
2023-04-19T15:17:27.353Z,102477.53
2023-04-19T15:19:53.756Z,102481.97
2023-04-19T15:22:20.124Z,102480.44
2023-04-19T15:24:46.494Z,102478.91
2023-04-19T15:27:12.860Z,102475.66
2023-04-19T15:29:40.049Z,102477.88
2023-04-19T15:32:06.505Z,102466.75
2023-04-19T15:34:32.932Z,102467.19
2023-04-19T15:36:59.502Z,102464.00
2023-04-19T15:39:25.971Z,102466.97
2023-04-19T15:41:52.358Z,102469.59
2023-04-19T15:44:18.744Z,102456.44
2023-04-19T15:46:45.241Z,102457.03
2023-04-19T15:49:11.669Z,102453.06
2023-04-19T15:51:38.954Z,102461.69
2023-04-19T15:54:05.911Z,102472.28
2023-04-19T15:56:32.424Z,102457.84
2023-04-19T15:58:59.444Z,102455.19
2023-04-19T16:01:26.739Z,102474.25
2023-04-19T16:03:53.344Z,102460.09
2023-04-19T16:06:19.907Z,102458.22
2023-04-19T16:08:46.219Z,102459.47
2023-04-19T16:11:12.611Z,102452.09
2023-04-19T16:13:38.976Z,102469.41
2023-04-19T16:16:06.000Z,102458.72
2023-04-19T16:18:32.309Z,102458.91
2023-04-19T16:20:58.798Z,102450.28
2023-04-19T16:23:25.480Z,102459.13
2023-04-19T16:25:52.667Z,102452.41
2023-04-19T16:28:19.790Z,102459.53
2023-04-19T16:30:47.279Z,102462.72
2023-04-19T16:33:15.214Z,102456.63
2023-04-19T16:35:41.717Z,102463.66
2023-04-19T16:38:08.120Z,102452.09
2023-04-19T16:40:34.530Z,102457.38
2023-04-19T16:43:00.907Z,102458.63
2023-04-19T16:45:27.348Z,102456.59
2023-04-19T16:47:53.867Z,102451.16
2023-04-19T16:50:20.512Z,102446.66
2023-04-19T16:52:46.890Z,102449.84
2023-04-19T16:55:15.010Z,102450.91
2023-04-19T16:57:41.636Z,102453.44
2023-04-19T17:00:09.565Z,102445.53
2023-04-19T17:02:36.072Z,102446.59
2023-04-19T17:05:02.726Z,102441.34
2023-04-19T17:07:29.287Z,102447.75
2023-04-19T17:09:56.187Z,102439.34
2023-04-19T17:12:22.653Z,102449.66
2023-04-19T17:14:48.983Z,102439.28
2023-04-19T17:17:15.405Z,102439.78
2023-04-19T17:19:41.842Z,102443.91
2023-04-19T17:22:08.149Z,102445.94
2023-04-19T17:24:34.556Z,102436.28
2023-04-19T17:27:00.927Z,102427.81
2023-04-19T17:29:27.467Z,102438.47
2023-04-19T17:31:54.062Z,102430.50
2023-04-19T17:34:20.561Z,102429.00
2023-04-19T17:36:46.892Z,102422.94
2023-04-19T17:39:13.265Z,102442.16
2023-04-19T17:41:39.726Z,102426.53
2023-04-19T17:44:06.065Z,102438.91
2023-04-19T17:46:32.397Z,102451.16
2023-04-19T17:48:58.805Z,102436.72
2023-04-19T17:51:25.195Z,102433.72
2023-04-19T17:53:51.710Z,102435.13
2023-04-19T17:56:18.169Z,102446.28
2023-04-19T17:58:44.503Z,102434.59
2023-04-19T18:01:10.860Z,102436.66
2023-04-19T18:03:37.962Z,102434.97
2023-04-19T18:06:04.568Z,102443.44
2023-04-19T18:08:31.023Z,102442.00
2023-04-19T18:10:57.365Z,102435.59
2023-04-19T18:13:23.726Z,102433.16
2023-04-19T18:15:50.202Z,102450.38
2023-04-19T18:18:16.597Z,102440.78
2023-04-19T18:20:42.963Z,102445.41
2023-04-19T18:23:09.358Z,102448.81
2023-04-19T18:25:36.828Z,102447.59
2023-04-19T18:28:04.250Z,102450.19
2023-04-19T18:30:30.651Z,102447.75
2023-04-19T18:32:58.775Z,102452.03
2023-04-19T18:35:25.252Z,102448.72
2023-04-19T18:37:51.569Z,102450.00
2023-04-19T18:40:18.864Z,102455.50
2023-04-19T18:42:45.618Z,102459.25
2023-04-19T18:45:12.275Z,102465.13
2023-04-19T18:47:38.670Z,102467.47
2023-04-19T18:50:06.532Z,102478.34
2023-04-19T18:52:36.281Z,102479.25
2023-04-19T18:55:03.797Z,102474.44
2023-04-19T18:57:34.723Z,102482.38
2023-04-19T19:00:02.063Z,102477.81
2023-04-19T19:02:28.534Z,102479.47
2023-04-19T19:04:57.978Z,102487.19
2023-04-19T19:07:36.375Z,102488.47
2023-04-19T19:10:18.665Z,102492.84
2023-04-19T19:12:47.391Z,102494.31
2023-04-19T19:15:14.269Z,102493.47
2023-04-19T19:17:40.923Z,102496.56
2023-04-19T19:20:08.049Z,102494.72
2023-04-19T19:22:34.870Z,102512.88
2023-04-19T19:25:01.454Z,102511.41
2023-04-19T19:27:28.079Z,102509.50
2023-04-19T19:29:54.431Z,102509.28
2023-04-19T19:32:20.949Z,102517.63
2023-04-19T19:37:17.420Z,102527.38
2023-04-19T19:39:45.019Z,102523.84
2023-04-19T19:42:16.389Z,102525.06
2023-04-19T19:44:43.228Z,102528.19
2023-04-19T19:47:10.981Z,102531.75
2023-04-19T19:52:07.197Z,102528.84
2023-04-19T19:54:33.691Z,102546.75
2023-04-19T19:57:52.904Z,102544.00
2023-04-19T19:59:51.626Z,102539.81
2023-04-19T20:02:22.246Z,102546.47
2023-04-19T20:04:49.179Z,102549.38
2023-04-19T20:09:45.459Z,102561.88
2023-04-19T20:12:13.293Z,102562.69
2023-04-19T20:14:39.971Z,102567.09
2023-04-19T20:17:06.482Z,102561.84
2023-04-19T20:19:32.872Z,102563.53
2023-04-19T20:22:00.251Z,102558.28
2023-04-19T20:24:26.709Z,102574.38
2023-04-19T20:26:53.089Z,102568.25
2023-04-19T20:29:19.459Z,102568.91
2023-04-19T20:31:45.898Z,102574.84
2023-04-19T20:34:12.212Z,102573.97
2023-04-19T20:36:39.392Z,102587.00
2023-04-19T20:39:09.357Z,102578.22
2023-04-19T20:41:35.934Z,102579.34
2023-04-19T20:44:02.351Z,102577.75
2023-04-19T20:46:28.697Z,102581.69
2023-04-19T20:48:55.461Z,102579.44
2023-04-19T20:51:21.958Z,102575.25
2023-04-19T20:53:48.599Z,102579.31
2023-04-19T20:56:14.944Z,102582.28
2023-04-19T20:58:41.267Z,102584.56
2023-04-19T21:01:07.872Z,102578.06
2023-04-19T21:03:34.327Z,102584.78
2023-04-19T21:06:00.736Z,102582.47
2023-04-19T21:08:27.057Z,102578.59
2023-04-19T21:10:53.430Z,102575.91
2023-04-19T21:13:19.829Z,102577.34
2023-04-19T21:15:46.242Z,102573.56
2023-04-19T21:18:12.586Z,102579.72
2023-04-19T21:20:39.428Z,102575.53
2023-04-19T21:23:05.893Z,102579.25
2023-04-19T21:25:32.256Z,102581.34
2023-04-19T21:27:58.643Z,102579.00
2023-04-19T21:30:25.716Z,102573.44
2023-04-19T21:32:52.596Z,102568.47
2023-04-19T21:35:19.484Z,102586.44
2023-04-19T21:37:45.890Z,102580.53
2023-04-19T21:40:12.435Z,102576.53
2023-04-19T21:42:38.740Z,102575.88
2023-04-19T21:45:05.812Z,102573.81
2023-04-19T21:47:32.295Z,102575.63
2023-04-19T21:49:58.661Z,102574.91
2023-04-19T21:52:25.001Z,102571.09
2023-04-19T21:54:51.411Z,102570.25
2023-04-19T21:57:21.845Z,102575.75
2023-04-19T21:59:48.214Z,102574.28
2023-04-19T22:02:14.705Z,102572.97
2023-04-19T22:04:41.574Z,102569.72
2023-04-19T22:07:08.112Z,102576.50
2023-04-19T22:09:34.509Z,102578.09
2023-04-19T22:12:01.586Z,102574.25
2023-04-19T22:14:28.263Z,102569.03
2023-04-19T22:16:54.860Z,102576.56
2023-04-19T22:19:23.239Z,102571.00
2023-04-19T22:21:49.770Z,102571.47
2023-04-19T22:24:16.439Z,102579.06
2023-04-19T22:26:42.807Z,102567.81
2023-04-19T22:29:09.152Z,102571.25
2023-04-19T22:31:35.826Z,102573.28
2023-04-19T22:34:02.227Z,102573.09
2023-04-19T22:36:28.597Z,102576.06
2023-04-19T22:38:54.922Z,102571.03
2023-04-19T22:41:21.255Z,102573.09
2023-04-19T22:43:47.638Z,102566.75
2023-04-19T22:46:14.081Z,102572.69
2023-04-19T22:48:40.811Z,102568.31
2023-04-19T22:51:07.409Z,102580.28
2023-04-19T22:53:33.733Z,102579.66
2023-04-19T22:56:00.139Z,102570.72
2023-04-19T22:58:26.528Z,102568.31
2023-04-19T23:00:53.005Z,102569.50
2023-04-19T23:03:19.611Z,102563.13
2023-04-19T23:05:47.217Z,102576.13
2023-04-19T23:08:15.108Z,102566.34
2023-04-19T23:10:42.468Z,102567.25
2023-04-19T23:13:10.319Z,102562.41
2023-04-19T23:15:37.514Z,102558.88
2023-04-19T23:18:04.262Z,102560.09
2023-04-19T23:20:30.881Z,102552.66
2023-04-19T23:22:57.285Z,102566.28
2023-04-19T23:25:24.979Z,102554.50
2023-04-19T23:27:51.572Z,102553.84
2023-04-19T23:30:18.363Z,102551.31
2023-04-19T23:32:44.846Z,102547.28
2023-04-19T23:35:11.290Z,102542.38
2023-04-19T23:37:37.982Z,102537.44
2023-04-19T23:40:06.172Z,102534.44
2023-04-19T23:42:32.647Z,102540.19
2023-04-19T23:44:59.345Z,102540.88
2023-04-19T23:47:25.993Z,102531.34
2023-04-19T23:49:52.314Z,102527.88
2023-04-19T23:52:22.700Z,102521.88
2023-04-19T23:54:49.654Z,102524.69
2023-04-19T23:57:16.020Z,102524.34
2023-04-19T23:59:42.408Z,102529.78
